createdAt,value
2023-04-09T00:01:45.930Z,100408.03
2023-04-09T00:04:13.703Z,100403.03
2023-04-09T00:06:41.513Z,100398.53
2023-04-09T00:09:09.300Z,100403.91
2023-04-09T00:11:37.071Z,100399.19
2023-04-09T00:14:04.806Z,100395.72
2023-04-09T00:16:32.578Z,100406.47
2023-04-09T00:19:01.102Z,100400.44
2023-04-09T00:21:28.877Z,100389.28
2023-04-09T00:23:56.656Z,100405.63
2023-04-09T00:26:24.312Z,100394.44
2023-04-09T00:28:52.207Z,100398.09
2023-04-09T00:31:21.002Z,100408.66
2023-04-09T00:33:49.045Z,100398.16
2023-04-09T00:36:16.866Z,100402.47
2023-04-09T00:38:45.157Z,100394.97
2023-04-09T00:41:13.030Z,100399.28
2023-04-09T00:43:40.872Z,100406.41
2023-04-09T00:46:08.697Z,100389.84
2023-04-09T00:48:36.483Z,100398.22
2023-04-09T00:51:04.358Z,100392.38
2023-04-09T00:53:32.096Z,100402.28
2023-04-09T00:55:59.831Z,100399.09
2023-04-09T00:58:27.630Z,100404.69
2023-04-09T01:00:56.194Z,100398.41
2023-04-09T01:03:24.082Z,100393.44
2023-04-09T01:06:16.398Z,100391.72
2023-04-09T01:09:11.450Z,100392.56
2023-04-09T01:12:07.586Z,100397.31
2023-04-09T01:14:42.253Z,100401.53
2023-04-09T01:17:18.836Z,100402.44
2023-04-09T01:20:05.934Z,100402.63
2023-04-09T01:22:42.709Z,100402.81
2023-04-09T01:25:59.280Z,100406.69
2023-04-09T01:28:37.741Z,100399.59
2023-04-09T01:31:13.753Z,100398.25
2023-04-09T01:33:42.256Z,100399.31
2023-04-09T01:36:10.178Z,100399.53
2023-04-09T01:38:42.122Z,100399.06
2023-04-09T01:41:15.787Z,100404.25
2023-04-09T01:43:44.262Z,100404.25
2023-04-09T01:46:12.464Z,100403.56
2023-04-09T01:48:40.635Z,100411.94
2023-04-09T01:51:08.389Z,100403.34
2023-04-09T01:53:36.622Z,100414.06
2023-04-09T01:56:04.769Z,100408.06
2023-04-09T01:58:34.298Z,100401.13
2023-04-09T02:01:36.985Z,100406.72
2023-04-09T02:04:10.715Z,100403.88
2023-04-09T02:06:44.319Z,100408.84
2023-04-09T02:09:12.721Z,100406.06
2023-04-09T02:11:42.640Z,100408.00
2023-04-09T02:14:12.005Z,100399.78
2023-04-09T02:17:00.672Z,100402.78
2023-04-09T02:19:48.775Z,100405.59
2023-04-09T02:22:17.282Z,100399.34
2023-04-09T02:24:46.801Z,100402.34
2023-04-09T02:27:14.586Z,100404.94
2023-04-09T02:29:42.585Z,100404.94
2023-04-09T02:32:10.403Z,100390.31
2023-04-09T02:34:38.154Z,100406.66
2023-04-09T02:37:05.928Z,100403.88
2023-04-09T02:39:33.862Z,100403.41
2023-04-09T02:42:02.281Z,100406.66
2023-04-09T02:44:29.967Z,100398.28
2023-04-09T02:46:58.203Z,100401.94
2023-04-09T02:49:26.003Z,100393.78
2023-04-09T02:51:53.863Z,100404.50
2023-04-09T02:54:21.696Z,100401.72
2023-04-09T02:56:49.414Z,100410.78
2023-04-09T02:59:17.087Z,100405.84
2023-04-09T03:01:45.103Z,100411.88
2023-04-09T03:04:12.928Z,100404.38
2023-04-09T03:06:40.844Z,100411.28
2023-04-09T03:09:08.594Z,100409.34
2023-04-09T03:11:36.306Z,100408.97
2023-04-09T03:14:04.080Z,100410.50
2023-04-09T03:16:31.788Z,100406.41
2023-04-09T03:18:59.481Z,100402.63
2023-04-09T03:21:27.605Z,100413.41
2023-04-09T03:23:55.427Z,100407.19
2023-04-09T03:26:23.248Z,100407.66
2023-04-09T03:28:51.535Z,100415.66
2023-04-09T03:31:19.632Z,100418.22
2023-04-09T03:33:48.262Z,100410.31
2023-04-09T03:36:16.040Z,100413.97
2023-04-09T03:38:57.580Z,100416.56
2023-04-09T03:41:35.390Z,100413.13
2023-04-09T03:44:10.411Z,100412.69
2023-04-09T03:47:01.101Z,100406.06
2023-04-09T03:49:29.766Z,100405.44
2023-04-09T03:52:04.346Z,100418.59
2023-04-09T03:54:38.002Z,100402.91
2023-04-09T03:57:11.632Z,100409.78
2023-04-09T03:59:41.952Z,100408.53
2023-04-09T04:02:10.545Z,100411.53
2023-04-09T04:04:46.507Z,100410.69
2023-04-09T04:07:14.294Z,100418.44
2023-04-09T04:09:48.525Z,100406.66
2023-04-09T04:12:19.366Z,100409.28
2023-04-09T04:15:07.962Z,100408.47
2023-04-09T04:17:50.101Z,100402.69
2023-04-09T04:20:30.169Z,100398.91
2023-04-09T04:23:04.310Z,100410.53
2023-04-09T04:25:33.793Z,100402.81
2023-04-09T04:28:02.561Z,100407.63
2023-04-09T04:30:38.320Z,100397.56
2023-04-09T04:33:09.600Z,100393.72
2023-04-09T04:35:44.626Z,100392.88
2023-04-09T04:38:28.570Z,100395.91
2023-04-09T04:40:58.016Z,100392.47
2023-04-09T04:43:26.144Z,100386.88
2023-04-09T04:46:00.101Z,100386.44
2023-04-09T04:48:32.058Z,100380.78
2023-04-09T04:51:01.341Z,100383.72
2023-04-09T04:53:36.627Z,100381.78
2023-04-09T04:56:16.734Z,100390.09
2023-04-09T04:58:58.181Z,100380.72
2023-04-09T05:01:26.069Z,100377.81
2023-04-09T05:03:55.643Z,100383.28
2023-04-09T05:06:29.824Z,100382.88
2023-04-09T05:08:58.970Z,100389.03
2023-04-09T05:11:29.550Z,100381.75
2023-04-09T05:13:57.334Z,100375.53
2023-04-09T05:16:25.215Z,100374.41
2023-04-09T05:19:01.939Z,100374.72
2023-04-09T05:21:29.816Z,100382.50
2023-04-09T05:23:59.223Z,100382.72
2023-04-09T05:26:31.571Z,100380.16
2023-04-09T05:28:59.960Z,100381.81
2023-04-09T05:31:27.878Z,100374.81
2023-04-09T05:34:18.205Z,100375.16
2023-04-09T05:36:50.714Z,100380.50
2023-04-09T05:39:20.074Z,100377.41
2023-04-09T05:41:48.849Z,100379.81
2023-04-09T05:44:37.095Z,100373.81
2023-04-09T05:47:15.866Z,100381.28
2023-04-09T05:49:52.494Z,100370.63
2023-04-09T05:52:21.572Z,100373.16
2023-04-09T05:54:51.708Z,100378.50
2023-04-09T05:57:25.483Z,100384.94
2023-04-09T05:59:59.390Z,100384.00
2023-04-09T06:02:27.293Z,100377.78
2023-04-09T06:04:55.886Z,100382.31
2023-04-09T06:07:23.806Z,100377.69
2023-04-09T06:09:51.661Z,100385.47
2023-04-09T06:12:19.602Z,100389.09
2023-04-09T06:14:49.010Z,100382.91
2023-04-09T06:17:16.853Z,100383.63
2023-04-09T06:19:44.638Z,100383.16
2023-04-09T06:22:12.494Z,100386.31
2023-04-09T06:24:40.226Z,100390.13
2023-04-09T06:27:08.136Z,100381.03
2023-04-09T06:29:36.242Z,100388.13
2023-04-09T06:32:04.173Z,100383.66
2023-04-09T06:34:31.852Z,100392.44
2023-04-09T06:36:59.563Z,100385.72
2023-04-09T06:39:28.070Z,100395.56
2023-04-09T06:41:58.209Z,100392.00
2023-04-09T06:44:37.747Z,100391.19
2023-04-09T06:47:05.651Z,100394.97
2023-04-09T06:49:33.351Z,100394.81
2023-04-09T06:52:01.480Z,100393.22
2023-04-09T06:54:29.238Z,100397.75
2023-04-09T06:56:57.044Z,100406.84
2023-04-09T06:59:24.811Z,100404.25
2023-04-09T07:01:54.664Z,100396.66
2023-04-09T07:04:22.735Z,100403.22
2023-04-09T07:06:51.793Z,100402.53
2023-04-09T07:09:19.536Z,100398.34
2023-04-09T07:11:47.189Z,100407.09
2023-04-09T07:14:14.863Z,100407.56
2023-04-09T07:16:43.153Z,100403.00
2023-04-09T07:19:11.066Z,100416.25
2023-04-09T07:21:38.824Z,100419.06
2023-04-09T07:24:06.908Z,100412.47
2023-04-09T07:26:34.709Z,100406.56
2023-04-09T07:29:03.842Z,100416.91
2023-04-09T07:31:33.326Z,100415.56
2023-04-09T07:34:02.660Z,100422.06
2023-04-09T07:36:31.945Z,100414.19
2023-04-09T07:38:59.799Z,100410.22
2023-04-09T07:41:27.570Z,100409.22
2023-04-09T07:43:55.655Z,100412.41
2023-04-09T07:46:23.453Z,100417.72
2023-04-09T07:48:51.805Z,100408.72
2023-04-09T07:51:19.699Z,100421.19
2023-04-09T07:53:47.445Z,100414.66
2023-04-09T07:56:15.240Z,100413.22
2023-04-09T07:58:43.172Z,100409.25
2023-04-09T08:01:10.991Z,100415.53
2023-04-09T08:03:38.842Z,100401.97
2023-04-09T08:06:06.660Z,100411.81
2023-04-09T08:08:39.561Z,100409.03
2023-04-09T08:11:07.283Z,100401.53
2023-04-09T08:13:34.986Z,100408.34
2023-04-09T08:16:03.992Z,100403.47
2023-04-09T08:18:31.892Z,100399.59
2023-04-09T08:20:59.742Z,100398.84
2023-04-09T08:23:28.189Z,100389.34
2023-04-09T08:25:56.018Z,100405.88
2023-04-09T08:28:24.189Z,100393.91
2023-04-09T08:30:52.038Z,100400.91
2023-04-09T08:33:19.881Z,100391.41
2023-04-09T08:35:47.620Z,100386.84
2023-04-09T08:38:16.081Z,100393.25
2023-04-09T08:40:43.881Z,100389.31
2023-04-09T08:43:15.422Z,100387.88
2023-04-09T08:45:43.336Z,100382.34
2023-04-09T08:48:13.845Z,100386.03
2023-04-09T08:50:41.666Z,100382.47
2023-04-09T08:53:10.739Z,100375.78
2023-04-09T08:55:40.153Z,100386.66
2023-04-09T08:58:07.969Z,100383.25
2023-04-09T09:00:35.943Z,100391.47
2023-04-09T09:03:16.055Z,100384.41
2023-04-09T09:05:45.479Z,100386.56
2023-04-09T09:08:24.461Z,100389.00
2023-04-09T09:10:52.678Z,100382.19
2023-04-09T09:13:25.333Z,100387.22
2023-04-09T09:15:56.366Z,100392.38
2023-04-09T09:18:44.653Z,100388.66
2023-04-09T09:21:13.920Z,100386.91
2023-04-09T09:23:42.825Z,100379.75
2023-04-09T09:26:18.172Z,100375.50
2023-04-09T09:28:47.273Z,100377.59
2023-04-09T09:31:16.121Z,100376.72
2023-04-09T09:33:44.312Z,100372.00
2023-04-09T09:36:12.257Z,100368.56
2023-04-09T09:38:57.456Z,100365.47
2023-04-09T09:41:26.032Z,100370.66
2023-04-09T09:43:53.917Z,100373.19
2023-04-09T09:46:22.342Z,100370.66
2023-04-09T09:48:50.418Z,100359.53
2023-04-09T09:51:19.091Z,100358.53
2023-04-09T09:53:49.748Z,100365.72
2023-04-09T09:56:22.786Z,100362.50
2023-04-09T09:58:58.546Z,100371.59
2023-04-09T10:01:28.228Z,100356.09
2023-04-09T10:03:57.704Z,100358.91
2023-04-09T10:06:26.567Z,100360.34
2023-04-09T10:08:58.413Z,100358.75
2023-04-09T10:11:26.294Z,100352.63
2023-04-09T10:13:57.275Z,100356.19
2023-04-09T10:16:28.425Z,100341.41
2023-04-09T10:18:57.466Z,100347.50
2023-04-09T10:21:53.903Z,100342.94
2023-04-09T10:24:21.949Z,100347.94
2023-04-09T10:26:50.527Z,100349.69
2023-04-09T10:29:18.424Z,100351.38
2023-04-09T10:31:50.136Z,100352.16
2023-04-09T10:34:19.424Z,100337.06
2023-04-09T10:36:53.111Z,100341.97
2023-04-09T10:39:21.146Z,100346.00
2023-04-09T10:41:49.634Z,100333.25
2023-04-09T10:44:25.454Z,100337.59
2023-04-09T10:46:56.402Z,100333.69
2023-04-09T10:49:26.312Z,100334.75
2023-04-09T10:52:05.263Z,100340.34
2023-04-09T10:54:33.255Z,100336.78
2023-04-09T10:57:11.709Z,100338.28
2023-04-09T10:59:51.116Z,100343.72
2023-04-09T11:02:34.395Z,100337.56
2023-04-09T11:05:38.539Z,100331.72
2023-04-09T11:08:13.210Z,100339.19
2023-04-09T11:10:44.065Z,100336.94
2023-04-09T11:13:16.005Z,100334.84
2023-04-09T11:15:45.160Z,100337.50
2023-04-09T11:18:20.574Z,100331.28
2023-04-09T11:20:54.538Z,100335.69
2023-04-09T11:23:22.551Z,100337.91
2023-04-09T11:25:51.288Z,100326.41
2023-04-09T11:28:19.629Z,100332.22
2023-04-09T11:30:47.844Z,100322.44
2023-04-09T11:33:17.495Z,100323.91
2023-04-09T11:35:47.230Z,100319.03
2023-04-09T11:38:15.062Z,100316.13
2023-04-09T11:40:48.435Z,100316.34
2023-04-09T11:43:17.101Z,100316.91
2023-04-09T11:45:47.193Z,100316.19
2023-04-09T11:48:16.053Z,100303.94
2023-04-09T11:50:43.860Z,100308.75
2023-04-09T11:53:22.545Z,100307.22
2023-04-09T11:55:51.973Z,100316.56
2023-04-09T11:58:23.280Z,100312.09
2023-04-09T12:00:58.255Z,100297.97
2023-04-09T12:03:33.448Z,100300.94
2023-04-09T12:06:03.127Z,100301.31
2023-04-09T12:08:31.909Z,100294.03
2023-04-09T12:11:14.962Z,100297.03
2023-04-09T12:13:45.429Z,100291.63
2023-04-09T12:16:13.753Z,100292.50
2023-04-09T12:18:41.569Z,100283.84
2023-04-09T12:21:09.376Z,100276.44
2023-04-09T12:23:37.295Z,100286.66
2023-04-09T12:26:05.173Z,100286.47
2023-04-09T12:28:32.903Z,100278.41
2023-04-09T12:31:00.731Z,100283.88
2023-04-09T12:33:28.466Z,100290.19
2023-04-09T12:35:58.614Z,100290.50
2023-04-09T12:38:26.948Z,100289.59
2023-04-09T12:40:54.789Z,100291.25
2023-04-09T12:43:22.512Z,100284.97
2023-04-09T12:45:50.555Z,100288.88
2023-04-09T12:48:38.387Z,100283.06
2023-04-09T12:51:16.024Z,100293.41
2023-04-09T12:54:04.288Z,100277.63
2023-04-09T12:56:34.787Z,100295.63
2023-04-09T12:59:22.565Z,100277.94
2023-04-09T13:01:50.609Z,100284.19
2023-04-09T13:04:18.533Z,100280.19
2023-04-09T13:06:46.774Z,100278.06
2023-04-09T13:09:14.718Z,100273.97
2023-04-09T13:12:02.548Z,100278.59
2023-04-09T13:14:30.908Z,100285.91
2023-04-09T13:17:18.682Z,100277.34
2023-04-09T13:19:50.600Z,100284.41
2023-04-09T13:22:19.724Z,100277.81
2023-04-09T13:24:50.381Z,100283.13
2023-04-09T13:27:18.114Z,100282.59
2023-04-09T13:29:46.394Z,100276.41
2023-04-09T13:32:18.473Z,100275.06
2023-04-09T13:34:46.206Z,100267.69
2023-04-09T13:37:20.436Z,100276.56
2023-04-09T13:39:48.345Z,100270.72
2023-04-09T13:42:34.987Z,100271.00
2023-04-09T13:45:24.036Z,100268.09
2023-04-09T13:48:10.522Z,100278.19
2023-04-09T13:50:59.593Z,100257.16
2023-04-09T13:53:46.250Z,100270.94
2023-04-09T13:56:32.955Z,100263.16
2023-04-09T13:59:19.558Z,100264.28
2023-04-09T14:01:47.456Z,100263.69
2023-04-09T14:04:15.541Z,100270.13
2023-04-09T14:06:43.669Z,100267.72
2023-04-09T14:09:12.120Z,100265.94
2023-04-09T14:11:39.836Z,100258.75
2023-04-09T14:14:07.552Z,100253.34
2023-04-09T14:16:36.432Z,100260.72
2023-04-09T14:19:04.331Z,100265.94
2023-04-09T14:21:34.455Z,100266.72
2023-04-09T14:24:02.296Z,100262.19
2023-04-09T14:26:30.073Z,100259.88
2023-04-09T14:28:57.776Z,100261.75
2023-04-09T14:31:25.610Z,100263.72
2023-04-09T14:33:53.361Z,100251.22
2023-04-09T14:36:21.498Z,100247.88
2023-04-09T14:38:49.333Z,100253.28
2023-04-09T14:41:17.322Z,100254.63
2023-04-09T14:43:45.087Z,100255.91
2023-04-09T14:46:13.196Z,100257.53
2023-04-09T14:48:46.937Z,100261.75
2023-04-09T14:51:14.783Z,100256.84
2023-04-09T14:53:42.707Z,100244.00
2023-04-09T14:56:36.838Z,100267.00
2023-04-09T14:59:04.532Z,100251.81
2023-04-09T15:01:33.335Z,100261.06
2023-04-09T15:04:01.281Z,100259.50
2023-04-09T15:06:29.766Z,100258.00
2023-04-09T15:08:57.896Z,100254.84
2023-04-09T15:11:25.638Z,100260.97
2023-04-09T15:13:53.270Z,100252.19
2023-04-09T15:16:23.527Z,100254.88
2023-04-09T15:18:52.645Z,100251.06
2023-04-09T15:21:20.866Z,100257.56
2023-04-09T15:23:50.833Z,100249.63
2023-04-09T15:26:18.813Z,100247.13
2023-04-09T15:28:46.674Z,100250.81
2023-04-09T15:31:14.479Z,100257.19
2023-04-09T15:33:47.028Z,100261.13
2023-04-09T15:36:14.954Z,100248.66
2023-04-09T15:38:42.754Z,100254.03
2023-04-09T15:41:10.812Z,100251.09
2023-04-09T15:43:38.557Z,100253.06
2023-04-09T15:46:10.844Z,100254.44
2023-04-09T15:48:38.727Z,100254.91
2023-04-09T15:51:06.623Z,100250.63
2023-04-09T15:53:35.043Z,100246.25
2023-04-09T15:56:03.742Z,100247.84
2023-04-09T15:58:32.093Z,100248.63
2023-04-09T16:01:09.449Z,100251.06
2023-04-09T16:03:52.965Z,100247.19
2023-04-09T16:06:23.582Z,100247.56
2023-04-09T16:08:51.680Z,100247.19
2023-04-09T16:11:19.916Z,100249.66
2023-04-09T16:13:48.504Z,100244.03
2023-04-09T16:16:16.411Z,100247.44
2023-04-09T16:18:44.253Z,100242.81
2023-04-09T16:21:12.552Z,100244.66
2023-04-09T16:23:41.039Z,100261.31
2023-04-09T16:26:10.607Z,100254.81
2023-04-09T16:28:40.728Z,100248.47
2023-04-09T16:31:08.439Z,100252.38
2023-04-09T16:33:36.146Z,100260.59
2023-04-09T16:36:04.155Z,100259.34
2023-04-09T16:38:32.993Z,100261.53
2023-04-09T16:41:01.050Z,100268.88
2023-04-09T16:43:30.381Z,100265.44
2023-04-09T16:45:59.164Z,100276.38
2023-04-09T16:48:26.925Z,100266.31
2023-04-09T16:50:57.875Z,100274.13
2023-04-09T16:53:27.987Z,100282.72
2023-04-09T16:55:55.904Z,100275.38
2023-04-09T16:58:23.866Z,100278.91
2023-04-09T17:00:52.220Z,100285.25
2023-04-09T17:03:20.149Z,100274.09
2023-04-09T17:05:51.132Z,100280.72
2023-04-09T17:08:21.639Z,100283.13
2023-04-09T17:10:49.379Z,100274.41
2023-04-09T17:13:17.297Z,100279.19
2023-04-09T17:15:45.146Z,100274.13
2023-04-09T17:18:12.903Z,100290.41
2023-04-09T17:20:40.650Z,100282.66
2023-04-09T17:23:08.787Z,100281.44
2023-04-09T17:25:37.065Z,100286.06
2023-04-09T17:28:05.058Z,100276.63
2023-04-09T17:30:36.401Z,100271.06
2023-04-09T17:33:04.915Z,100285.63
2023-04-09T17:35:32.938Z,100275.72
2023-04-09T17:38:04.209Z,100284.00
2023-04-09T17:40:34.611Z,100281.53
2023-04-09T17:43:02.556Z,100283.31
2023-04-09T17:45:30.299Z,100282.28
2023-04-09T17:47:58.153Z,100273.69
2023-04-09T17:50:25.931Z,100272.38
2023-04-09T17:52:53.735Z,100279.72
2023-04-09T17:55:23.536Z,100277.16
2023-04-09T17:57:51.316Z,100278.69
2023-04-09T18:00:19.271Z,100277.16
2023-04-09T18:02:55.199Z,100265.66
2023-04-09T18:05:23.521Z,100269.75
2023-04-09T18:07:53.231Z,100279.16
2023-04-09T18:10:23.073Z,100265.09
2023-04-09T18:12:50.845Z,100273.53
2023-04-09T18:15:21.991Z,100274.38
2023-04-09T18:17:49.935Z,100280.00
2023-04-09T18:20:17.818Z,100280.25
2023-04-09T18:22:46.347Z,100271.66
2023-04-09T18:25:14.172Z,100278.25
2023-04-09T18:27:41.886Z,100283.72
2023-04-09T18:30:09.993Z,100266.31
2023-04-09T18:32:37.816Z,100267.81
2023-04-09T18:35:06.068Z,100282.13
2023-04-09T18:37:34.282Z,100275.72
2023-04-09T18:40:02.836Z,100275.41
2023-04-09T18:42:30.943Z,100277.44
2023-04-09T18:44:58.695Z,100273.59
2023-04-09T18:47:29.262Z,100282.94
2023-04-09T18:50:04.186Z,100270.28
2023-04-09T18:52:32.404Z,100282.69
2023-04-09T18:55:00.152Z,100286.41
2023-04-09T18:57:28.888Z,100294.66
2023-04-09T18:59:56.604Z,100287.75
2023-04-09T19:02:24.534Z,100286.06
2023-04-09T19:04:52.920Z,100282.84
2023-04-09T19:07:21.100Z,100282.22
2023-04-09T19:09:51.680Z,100281.88
2023-04-09T19:12:19.440Z,100287.72
2023-04-09T19:14:50.045Z,100283.25
2023-04-09T19:17:17.850Z,100289.53
2023-04-09T19:19:45.616Z,100282.91
2023-04-09T19:22:14.000Z,100294.34
2023-04-09T19:24:44.569Z,100287.06
2023-04-09T19:27:13.394Z,100281.72
2023-04-09T19:29:41.151Z,100285.66
2023-04-09T19:32:10.569Z,100293.00
2023-04-09T19:34:38.320Z,100282.28
2023-04-09T19:37:06.387Z,100287.94
2023-04-09T19:39:34.249Z,100284.94
2023-04-09T19:42:03.293Z,100282.16
2023-04-09T19:44:31.072Z,100288.47
2023-04-09T19:46:58.799Z,100279.00
2023-04-09T19:49:27.356Z,100289.81
2023-04-09T19:51:55.030Z,100306.63
2023-04-09T19:54:22.735Z,100291.75
2023-04-09T19:56:50.461Z,100296.50
2023-04-09T19:59:18.152Z,100287.03
2023-04-09T20:01:45.944Z,100292.19
2023-04-09T20:04:13.853Z,100289.19
2023-04-09T20:06:43.190Z,100285.34
2023-04-09T20:09:12.560Z,100290.94
2023-04-09T20:11:40.461Z,100293.97
2023-04-09T20:14:08.127Z,100286.22
2023-04-09T20:16:35.898Z,100293.13
2023-04-09T20:19:03.613Z,100285.38
2023-04-09T20:21:31.381Z,100287.97
2023-04-09T20:23:59.206Z,100288.41
2023-04-09T20:26:26.965Z,100296.16
2023-04-09T20:28:54.786Z,100291.84
2023-04-09T20:31:22.985Z,100290.38
2023-04-09T20:33:50.721Z,100293.16
2023-04-09T20:36:19.509Z,100291.88
2023-04-09T20:38:48.306Z,100294.44
2023-04-09T20:41:15.928Z,100296.84
2023-04-09T20:43:43.707Z,100293.41
2023-04-09T20:46:12.089Z,100296.00
2023-04-09T20:48:39.949Z,100295.13
2023-04-09T20:51:11.807Z,100288.44
2023-04-09T20:53:39.525Z,100297.47
2023-04-09T20:56:09.096Z,100300.09
2023-04-09T20:58:36.931Z,100300.09
2023-04-09T21:01:07.493Z,100297.72
2023-04-09T21:03:36.769Z,100294.06
2023-04-09T21:06:04.864Z,100305.03
2023-04-09T21:08:32.969Z,100299.66
2023-04-09T21:11:00.877Z,100299.66
2023-04-09T21:13:28.864Z,100301.38
2023-04-09T21:15:57.644Z,100303.31
2023-04-09T21:18:25.565Z,100294.50
2023-04-09T21:20:53.293Z,100303.53
2023-04-09T21:23:21.103Z,100296.44
2023-04-09T21:25:48.799Z,100299.25
2023-04-09T21:28:16.538Z,100306.34
2023-04-09T21:30:46.743Z,100303.75
2023-04-09T21:33:14.426Z,100300.97
2023-04-09T21:35:42.165Z,100298.38
2023-04-09T21:38:10.069Z,100300.09
2023-04-09T21:40:38.115Z,100298.38
2023-04-09T21:43:05.893Z,100293.84
2023-04-09T21:45:33.660Z,100291.94
2023-04-09T21:48:01.817Z,100297.72
2023-04-09T21:50:31.179Z,100295.59
2023-04-09T21:52:59.001Z,100296.63
2023-04-09T21:55:26.717Z,100300.97
2023-04-09T21:57:55.454Z,100297.28
2023-04-09T22:00:23.263Z,100296.22
2023-04-09T22:02:51.072Z,100301.59
2023-04-09T22:05:18.993Z,100299.00
2023-04-09T22:07:46.704Z,100295.34
2023-04-09T22:10:14.459Z,100293.19
2023-04-09T22:12:42.403Z,100301.81
2023-04-09T22:15:13.596Z,100286.72
2023-04-09T22:17:41.677Z,100301.56
2023-04-09T22:20:09.769Z,100290.38
2023-04-09T22:22:37.836Z,100302.41
2023-04-09T22:25:07.059Z,100304.13
2023-04-09T22:27:34.910Z,100299.38
2023-04-09T22:30:02.691Z,100299.16
2023-04-09T22:32:33.569Z,100298.75
2023-04-09T22:35:01.594Z,100299.59
2023-04-09T22:37:29.332Z,100292.91
2023-04-09T22:39:57.388Z,100292.69
2023-04-09T22:42:25.774Z,100298.28
2023-04-09T22:44:54.079Z,100299.59
2023-04-09T22:47:21.858Z,100290.75
2023-04-09T22:49:53.027Z,100291.84
2023-04-09T22:52:20.753Z,100296.81
2023-04-09T22:54:48.544Z,100290.56
2023-04-09T22:57:16.269Z,100291.44
2023-04-09T22:59:44.037Z,100290.56
2023-04-09T23:02:11.829Z,100292.50
2023-04-09T23:04:39.820Z,100284.31
2023-04-09T23:07:09.432Z,100291.44
2023-04-09T23:09:37.102Z,100291.00
2023-04-09T23:12:04.850Z,100282.63
2023-04-09T23:14:32.606Z,100283.69
2023-04-09T23:17:00.459Z,100280.91
2023-04-09T23:19:28.178Z,100286.97
2023-04-09T23:21:56.253Z,100289.09
2023-04-09T23:24:24.953Z,100288.69
2023-04-09T23:26:53.424Z,100291.03
2023-04-09T23:29:21.335Z,100280.72
2023-04-09T23:31:49.103Z,100280.28
2023-04-09T23:34:16.764Z,100286.09
2023-04-09T23:36:44.507Z,100299.69
2023-04-09T23:39:12.608Z,100292.16
2023-04-09T23:41:40.316Z,100294.50
2023-04-09T23:44:08.061Z,100290.19
2023-04-09T23:46:35.753Z,100290.84
2023-04-09T23:49:04.000Z,100293.84
2023-04-09T23:51:31.714Z,100297.50
2023-04-09T23:54:00.519Z,100298.38
2023-04-09T23:56:29.500Z,100295.56
2023-04-09T23:58:57.217Z,100293.63
